Time;durP1;ratioP1;P1;durP2;ratioP2;P2;SDS_P1;SDS_P2;PMS_P1;PMS_P2;Temp;Humidity;BMP_temperature;BMP_pressure;BME280_temperature;BME280_humidity;BME280_pressure;Samples;Min_cycle;Max_cycle;Signal;HPM_P1;HPM_P2
2023/08/10 00:02:06;;;;;;;16.90;3.80;;;;;;;13.16;100.00;101922.53;5040112;28;20556;-80
2023/08/10 00:04:33;;;;;;;13.70;4.10;;;;;;;13.18;100.00;101926.03;5040258;28;20784;-80
2023/08/10 00:06:58;;;;;;;10.98;3.88;;;;;;;13.22;100.00;101927.56;5042168;28;20053;-80
2023/08/10 00:09:24;;;;;;;16.40;4.38;;;;;;;13.23;100.00;101937.34;5042562;28;20056;-80
2023/08/10 00:11:49;;;;;;;10.93;4.22;;;;;;;13.26;100.00;101928.19;5042637;28;20025;-80
2023/08/10 00:14:14;;;;;;;14.38;4.38;;;;;;;13.26;100.00;101934.44;5039988;28;20057;-80
2023/08/10 00:16:41;;;;;;;18.90;4.63;;;;;;;13.27;100.00;101930.78;5043859;28;20544;-80
2023/08/10 00:19:06;;;;;;;11.77;4.18;;;;;;;13.32;100.00;101935.03;5041573;28;20118;-80
2023/08/10 00:21:32;;;;;;;14.27;4.63;;;;;;;13.34;100.00;101933.06;5046276;28;20044;-80
2023/08/10 00:23:57;;;;;;;17.17;4.22;;;;;;;13.35;100.00;101927.59;5025825;28;20052;-80
2023/08/10 00:26:25;;;;;;;16.75;4.50;;;;;;;13.36;100.00;101933.88;5036543;28;20032;-80
2023/08/10 00:28:51;;;;;;;16.20;4.93;;;;;;;13.37;100.00;101933.78;5041906;28;20040;-80
2023/08/10 00:31:17;;;;;;;16.60;4.57;;;;;;;13.37;100.00;101927.53;5039450;28;20040;-81
2023/08/10 00:33:43;;;;;;;18.52;4.82;;;;;;;13.42;100.00;101939.72;5040014;28;20044;-81
2023/08/10 00:36:08;;;;;;;13.90;4.47;;;;;;;13.44;100.00;101932.41;5036903;28;20391;-80
2023/08/10 00:38:35;;;;;;;12.48;4.25;;;;;;;13.47;100.00;101942.13;5045386;28;20028;-81
2023/08/10 00:41:01;;;;;;;12.15;4.38;;;;;;;13.46;100.00;101937.69;5036849;28;20120;-81
2023/08/10 00:43:26;;;;;;;14.55;4.88;;;;;;;13.48;100.00;101926.78;5044620;28;20445;-80
2023/08/10 00:45:52;;;;;;;13.18;4.35;;;;;;;13.49;100.00;101931.22;5041891;28;20083;-81
2023/08/10 00:48:17;;;;;;;15.50;4.93;;;;;;;13.49;100.00;101933.91;5044129;28;20076;-81
2023/08/10 00:50:43;;;;;;;12.63;4.18;;;;;;;13.49;100.00;101932.06;5044983;28;20018;-77
2023/08/10 00:53:09;;;;;;;17.13;5.13;;;;;;;13.45;100.00;101923.28;5050521;28;20217;-78
2023/08/10 00:55:34;;;;;;;15.48;4.22;;;;;;;13.42;100.00;101925.34;5045703;28;20025;-78
2023/08/10 00:58:00;;;;;;;12.57;4.53;;;;;;;13.39;100.00;101920.16;5042877;28;20021;-79
2023/08/10 01:00:26;;;;;;;17.08;4.80;;;;;;;13.35;100.00;101921.34;5043737;28;20021;-75
2023/08/10 01:02:52;;;;;;;13.18;3.90;;;;;;;13.32;100.00;101926.91;5045009;28;20480;-76
2023/08/10 01:05:17;;;;;;;15.48;4.38;;;;;;;13.31;100.00;101930.59;5045031;28;20033;-75
2023/08/10 01:08:11;;;;;;;14.15;4.22;;;;;;;13.32;100.00;101935.88;5034937;28;20029;-76
2023/08/10 01:10:52;;;;;;;13.93;4.65;;;;;;;13.33;100.00;101932.22;5045211;28;20072;-75
2023/08/10 01:13:44;;;;;;;17.13;5.38;;;;;;;13.35;100.00;101938.41;5049262;28;20055;-76
2023/08/10 01:16:11;;;;;;;10.68;4.10;;;;;;;13.32;100.00;101929.63;5038982;28;20041;-75
2023/08/10 01:18:39;;;;;;;13.93;4.53;;;;;;;13.31;100.00;101933.28;5053179;28;20033;-76
2023/08/10 01:21:23;;;;;;;15.10;4.65;;;;;;;13.27;100.00;101938.03;5038187;28;20025;-76
2023/08/10 01:23:52;;;;;;;12.60;4.65;;;;;;;13.25;100.00;101931.84;5047159;28;20128;-75
2023/08/10 01:26:18;;;;;;;18.73;5.15;;;;;;;13.25;100.00;101930.03;5049839;28;20056;-76
2023/08/10 01:28:44;;;;;;;13.85;4.95;;;;;;;13.21;100.00;101933.91;5048310;28;20032;-76
2023/08/10 01:31:10;;;;;;;14.75;4.60;;;;;;;13.19;100.00;101935.88;5036321;28;20032;-75
2023/08/10 01:33:35;;;;;;;16.58;4.70;;;;;;;13.17;100.00;101932.38;5037760;28;20025;-76
2023/08/10 01:36:01;;;;;;;15.68;5.03;;;;;;;13.16;100.00;101932.47;5046657;28;20044;-75
2023/08/10 01:38:26;;;;;;;14.65;4.78;;;;;;;13.16;100.00;101936.03;5045096;28;20043;-75
2023/08/10 01:40:52;;;;;;;12.57;4.55;;;;;;;13.11;100.00;101932.78;5048578;28;20116;-75
2023/08/10 01:43:17;;;;;;;13.52;4.57;;;;;;;13.08;100.00;101931.16;5031516;28;20062;-75
2023/08/10 01:45:48;;;;;;;15.07;4.85;;;;;;;13.05;100.00;101930.50;5037050;28;20029;-75
2023/08/10 01:48:28;;;;;;;14.57;4.68;;;;;;;13.00;100.00;101936.22;5038326;28;20112;-75
2023/08/10 01:50:57;;;;;;;14.70;5.28;;;;;;;12.99;100.00;101933.59;5044711;28;20032;-75
2023/08/10 01:53:30;;;;;;;18.45;5.45;;;;;;;12.93;100.00;101941.16;5043471;28;20052;-75
2023/08/10 01:55:57;;;;;;;15.20;5.05;;;;;;;12.88;100.00;101934.31;5052112;28;20033;-75
2023/08/10 01:58:22;;;;;;;17.42;4.95;;;;;;;12.86;100.00;101936.25;5044564;28;20056;-75
2023/08/10 02:00:49;;;;;;;13.18;4.47;;;;;;;12.82;100.00;101935.59;5044323;28;20032;-75
2023/08/10 02:03:14;;;;;;;15.27;5.40;;;;;;;12.77;100.00;101935.88;5043673;28;20022;-75
2023/08/10 02:05:40;;;;;;;18.13;5.25;;;;;;;12.72;100.00;101939.84;5042351;28;20104;-75
2023/08/10 02:08:07;;;;;;;16.73;5.43;;;;;;;12.69;100.00;101940.91;5037492;28;20021;-75
2023/08/10 02:10:32;;;;;;;16.50;5.32;;;;;;;12.66;100.00;101946.50;5044601;28;20025;-75
2023/08/10 02:12:57;;;;;;;14.43;4.40;;;;;;;12.63;100.00;101940.44;5040239;28;20374;-78
2023/08/10 02:15:23;;;;;;;15.57;5.22;;;;;;;12.60;100.00;101941.50;5033231;28;20595;-78
2023/08/10 02:17:48;;;;;;;18.80;5.63;;;;;;;12.58;100.00;101948.84;5029230;28;20025;-78
2023/08/10 02:20:13;;;;;;;17.40;5.53;;;;;;;12.57;100.00;101945.25;5040569;28;20075;-78
2023/08/10 02:22:50;;;;;;;14.77;4.75;;;;;;;12.58;100.00;101949.69;5040492;28;20067;-78
2023/08/10 02:25:17;;;;;;;12.98;4.68;;;;;;;12.58;100.00;101955.09;5042550;28;20059;-78
2023/08/10 02:27:43;;;;;;;15.52;5.10;;;;;;;12.54;100.00;101942.75;5035736;28;20025;-78
2023/08/10 02:30:09;;;;;;;15.88;5.25;;;;;;;12.53;100.00;101954.53;5042917;28;20033;-78
2023/08/10 02:32:35;;;;;;;16.23;4.72;;;;;;;12.52;100.00;101952.78;5040739;28;20164;-78
2023/08/10 02:35:04;;;;;;;14.63;4.95;;;;;;;12.52;100.00;101954.63;5038811;28;20479;-78
2023/08/10 02:37:30;;;;;;;15.85;5.10;;;;;;;12.51;100.00;101942.97;5038450;28;20033;-78
2023/08/10 02:39:55;;;;;;;16.27;5.07;;;;;;;12.54;100.00;101950.00;5036560;28;20018;-78
2023/08/10 02:42:20;;;;;;;14.43;5.00;;;;;;;12.53;100.00;101951.84;5039167;28;20110;-78
2023/08/10 02:44:46;;;;;;;14.15;4.93;;;;;;;12.52;100.00;101950.09;5039811;28;20053;-78
2023/08/10 02:47:12;;;;;;;14.27;4.63;;;;;;;12.48;100.00;101955.78;5040412;28;20118;-78
2023/08/10 02:49:38;;;;;;;14.43;4.72;;;;;;;12.42;100.00;101948.94;5034734;28;20033;-77
2023/08/10 02:52:04;;;;;;;14.30;4.93;;;;;;;12.37;100.00;101946.56;5043567;28;20032;-78
2023/08/10 02:54:29;;;;;;;18.13;5.25;;;;;;;12.35;100.00;101947.59;5042699;28;20392;-78
2023/08/10 02:56:54;;;;;;;15.57;4.55;;;;;;;12.33;100.00;101954.91;5044045;28;20025;-78
2023/08/10 02:59:20;;;;;;;14.70;4.78;;;;;;;12.30;100.00;101950.59;5030027;28;20037;-77
2023/08/10 03:01:46;;;;;;;16.13;5.28;;;;;;;12.28;100.00;101957.03;5034708;28;20025;-78
2023/08/10 03:04:12;;;;;;;15.57;4.93;;;;;;;12.25;100.00;101960.78;5041973;28;20111;-78
2023/08/10 03:06:39;;;;;;;13.48;4.97;;;;;;;12.23;100.00;101960.88;5033173;28;20380;-78
2023/08/10 03:09:04;;;;;;;17.40;5.32;;;;;;;12.20;100.00;101961.09;5040510;28;20031;-78
2023/08/10 03:11:30;;;;;;;14.13;4.60;;;;;;;12.16;100.00;101958.69;5045566;28;20485;-78
2023/08/10 03:13:56;;;;;;;12.02;4.68;;;;;;;12.11;100.00;101964.38;5043183;28;20070;-78
2023/08/10 03:16:21;;;;;;;13.85;4.50;;;;;;;12.09;100.00;101962.72;5041926;28;20473;-78
2023/08/10 03:18:47;;;;;;;14.80;4.68;;;;;;;12.09;100.00;101962.72;5040621;28;20083;-78
2023/08/10 03:21:12;;;;;;;15.13;5.43;;;;;;;12.05;100.00;101962.91;5037140;28;20120;-78
2023/08/10 03:23:37;;;;;;;14.82;5.07;;;;;;;12.02;100.00;101967.59;5047365;28;20800;-76
2023/08/10 03:26:03;;;;;;;18.40;5.35;;;;;;;11.97;100.00;101973.28;5050856;28;20435;-75
2023/08/10 03:28:28;;;;;;;16.08;4.80;;;;;;;11.95;100.00;101967.13;5049403;28;20083;-75
2023/08/10 03:30:53;;;;;;;17.02;5.20;;;;;;;11.93;100.00;101962.75;5047960;28;20025;-75
2023/08/10 03:33:19;;;;;;;17.17;5.35;;;;;;;11.93;100.00;101963.66;5043458;28;20033;-75
2023/08/10 03:35:44;;;;;;;14.52;5.03;;;;;;;11.95;100.00;101952.78;5045527;28;20044;-75
2023/08/10 03:38:10;;;;;;;13.57;4.95;;;;;;;11.95;100.00;101955.47;5050932;28;20026;-75
2023/08/10 03:40:35;;;;;;;14.02;4.63;;;;;;;11.96;100.00;101957.22;5045384;28;20052;-75
2023/08/10 03:43:01;;;;;;;19.42;5.35;;;;;;;11.95;100.00;101958.16;5034688;28;20032;-75
2023/08/10 03:45:26;;;;;;;18.77;5.63;;;;;;;11.92;100.00;101961.00;5038847;28;20099;-75
2023/08/10 03:47:51;;;;;;;15.45;5.40;;;;;;;11.93;100.00;101958.25;5045150;28;20433;-75
2023/08/10 03:50:17;;;;;;;17.73;5.68;;;;;;;11.92;100.00;101959.22;5048156;28;20088;-75
2023/08/10 03:52:42;;;;;;;18.35;5.70;;;;;;;11.88;100.00;101958.50;5046468;28;20049;-75
2023/08/10 03:55:08;;;;;;;12.55;4.80;;;;;;;11.84;100.00;101959.66;5045359;28;20097;-75
2023/08/10 03:57:33;;;;;;;17.88;5.78;;;;;;;11.83;100.00;101965.13;5048821;28;20017;-76
2023/08/10 03:59:58;;;;;;;14.77;5.03;;;;;;;11.84;100.00;101959.66;5051653;28;20040;-75
2023/08/10 04:02:24;;;;;;;16.67;5.82;;;;;;;11.84;100.00;101966.88;5041033;28;20028;-75
2023/08/10 04:04:50;;;;;;;14.15;5.32;;;;;;;11.84;100.00;101959.66;5038845;28;20021;-75
2023/08/10 04:07:15;;;;;;;15.35;5.18;;;;;;;11.82;100.00;101964.28;5036532;28;20026;-75
2023/08/10 04:09:46;;;;;;;14.00;5.22;;;;;;;11.80;100.00;101966.22;5043220;28;20440;-75
2023/08/10 04:12:11;;;;;;;14.73;5.20;;;;;;;11.78;100.00;101970.81;5048185;28;20031;-75
2023/08/10 04:14:37;;;;;;;21.55;6.28;;;;;;;11.77;100.00;101974.47;5042103;28;20407;-75
2023/08/10 04:17:02;;;;;;;15.23;4.82;;;;;;;11.77;100.00;101978.97;5042217;28;20385;-75
2023/08/10 04:19:27;;;;;;;16.45;5.22;;;;;;;11.78;100.00;101976.19;5044465;28;20094;-75
2023/08/10 04:21:53;;;;;;;17.98;5.80;;;;;;;11.78;100.00;101976.19;5045744;28;20032;-75
2023/08/10 04:24:18;;;;;;;16.50;6.10;;;;;;;11.78;100.00;101976.19;5038402;28;20378;-75
2023/08/10 04:26:45;;;;;;;18.15;6.10;;;;;;;11.78;100.00;101976.19;5043930;28;20033;-75
2023/08/10 04:29:10;;;;;;;15.10;5.55;;;;;;;11.78;100.00;101976.19;5035101;28;20030;-75
2023/08/10 04:31:36;;;;;;;20.23;6.60;;;;;;;11.80;100.00;101982.38;5034372;28;20531;-75
2023/08/10 04:34:01;;;;;;;20.25;6.35;;;;;;;11.80;100.00;101984.19;5045783;28;20022;-74
2023/08/10 04:36:26;;;;;;;18.05;5.93;;;;;;;11.78;100.00;101978.88;5045790;28;20484;-74
2023/08/10 04:38:52;;;;;;;18.40;6.28;;;;;;;11.77;100.00;101981.66;5050047;28;20401;-74
2023/08/10 04:41:17;;;;;;;19.27;5.78;;;;;;;11.79;100.00;101994.09;5044247;28;20029;-74
2023/08/10 04:43:43;;;;;;;16.40;6.15;;;;;;;11.76;100.00;101979.94;5037218;28;20128;-74
2023/08/10 04:46:09;;;;;;;17.92;5.85;;;;;;;11.76;100.00;101988.91;5029331;28;20036;-75
2023/08/10 04:48:34;;;;;;;19.08;6.57;;;;;;;11.80;100.00;101994.94;5033205;28;20025;-74
2023/08/10 04:51:00;;;;;;;26.60;6.78;;;;;;;11.85;100.00;102000.94;5033405;28;20388;-74
2023/08/10 04:53:54;;;;;;;18.25;6.60;;;;;;;11.92;100.00;101998.72;5041024;28;20029;-74
2023/08/10 04:56:19;;;;;;;19.88;6.20;;;;;;;11.96;100.00;102001.22;5043491;28;20400;-75
2023/08/10 04:58:45;;;;;;;19.80;6.97;;;;;;;12.03;100.00;101996.28;5034484;28;20025;-74
2023/08/10 05:01:13;;;;;;;19.50;6.75;;;;;;;12.11;100.00;101993.13;5041826;28;20036;-74
2023/08/10 05:03:39;;;;;;;18.42;7.78;;;;;;;12.18;100.00;101998.06;5031462;28;20182;-75
2023/08/10 05:06:05;;;;;;;18.13;7.32;;;;;;;12.27;100.00;102003.81;5037530;28;20535;-74
2023/08/10 05:08:30;;;;;;;18.13;6.75;;;;;;;12.31;100.00;101994.59;5043477;28;20029;-74
2023/08/10 05:10:56;;;;;;;21.40;6.20;;;;;;;12.35;100.00;101996.13;5041801;28;20392;-74
2023/08/10 05:13:21;;;;;;;18.55;6.57;;;;;;;12.39;100.00;101995.84;5037417;28;20030;-74
2023/08/10 05:15:48;;;;;;;17.38;6.57;;;;;;;12.42;100.00;101994.78;5038433;28;20037;-74
2023/08/10 05:18:13;;;;;;;18.40;6.32;;;;;;;12.45;100.00;101999.97;5033212;28;20033;-74
2023/08/10 05:20:38;;;;;;;18.88;6.78;;;;;;;12.49;100.00;101992.56;5043233;28;20028;-75
2023/08/10 05:23:04;;;;;;;17.98;6.90;;;;;;;12.53;100.00;102002.19;5043630;28;20090;-74
2023/08/10 05:25:29;;;;;;;17.90;6.63;;;;;;;12.57;100.00;102001.03;5044145;28;20361;-74
2023/08/10 05:27:54;;;;;;;18.63;6.65;;;;;;;12.58;100.00;102009.03;5044185;28;20050;-74
2023/08/10 05:30:20;;;;;;;15.98;6.50;;;;;;;12.63;100.00;102005.19;5044085;28;20060;-74
2023/08/10 05:32:45;;;;;;;17.90;6.82;;;;;;;12.68;100.00;102003.03;5041851;28;20063;-74
2023/08/10 05:35:12;;;;;;;19.90;7.57;;;;;;;12.71;100.00;102001.03;5030728;28;20443;-74
2023/08/10 05:37:40;;;;;;;18.73;7.53;;;;;;;12.75;100.00;101991.78;5037409;28;20018;-74
2023/08/10 05:40:09;;;;;;;18.73;6.93;;;;;;;12.79;100.00;101986.19;5050745;28;20033;-74
2023/08/10 05:42:36;;;;;;;21.23;7.88;;;;;;;12.84;100.00;101992.13;5044858;28;20051;-74
2023/08/10 05:45:02;;;;;;;19.83;6.93;;;;;;;12.87;100.00;101991.94;5042361;28;20044;-76
2023/08/10 05:47:27;;;;;;;18.90;7.05;;;;;;;12.89;100.00;101985.47;5035294;28;20037;-75
2023/08/10 05:49:52;;;;;;;18.20;7.38;;;;;;;12.92;100.00;101996.06;5041160;28;20116;-75
2023/08/10 05:52:18;;;;;;;21.90;8.05;;;;;;;12.94;100.00;101988.75;5039585;28;20118;-75
2023/08/10 05:54:43;;;;;;;23.25;8.60;;;;;;;12.97;100.00;101986.81;5039906;28;20033;-75
2023/08/10 05:57:09;;;;;;;18.63;7.57;;;;;;;13.01;100.00;101993.75;5040497;28;20025;-76
2023/08/10 05:59:34;;;;;;;22.20;9.23;;;;;;;13.05;100.00;101995.28;5042051;28;20031;-75
2023/08/10 06:02:00;;;;;;;19.05;8.35;;;;;;;13.07;100.00;101990.63;5047307;28;20029;-75
2023/08/10 06:04:25;;;;;;;21.20;9.07;;;;;;;13.12;100.00;101985.81;5043699;28;20037;-76
2023/08/10 06:06:50;;;;;;;22.83;8.77;;;;;;;13.20;100.00;101991.56;5041635;28;20083;-75
2023/08/10 06:09:16;;;;;;;18.48;7.97;;;;;;;13.28;100.00;101993.78;5043890;28;20029;-75
2023/08/10 06:11:42;;;;;;;22.40;9.60;;;;;;;13.39;100.00;101990.38;5042453;28;20060;-75
2023/08/10 06:14:08;;;;;;;21.15;8.55;;;;;;;13.47;100.00;101988.03;5042390;28;20025;-75
2023/08/10 06:16:33;;;;;;;20.75;8.43;;;;;;;13.55;100.00;101984.81;5040177;28;20025;-75
2023/08/10 06:18:59;;;;;;;20.55;8.35;;;;;;;13.63;100.00;101990.53;5033230;28;20091;-75
2023/08/10 06:21:24;;;;;;;21.85;9.00;;;;;;;13.71;100.00;101988.19;5041356;28;20370;-75
2023/08/10 06:23:50;;;;;;;22.85;9.52;;;;;;;13.76;100.00;102002.25;5045502;28;20592;-75
2023/08/10 06:26:15;;;;;;;20.55;8.60;;;;;;;13.79;100.00;101995.75;5041596;28;20079;-76
2023/08/10 06:28:40;;;;;;;20.17;8.38;;;;;;;13.85;100.00;101992.66;5046312;28;20056;-75
2023/08/10 06:31:09;;;;;;;23.30;9.02;;;;;;;13.91;100.00;102000.34;5037331;28;20032;-75
2023/08/10 06:33:36;;;;;;;18.83;7.93;;;;;;;13.98;100.00;101995.34;5036377;28;20492;-76
2023/08/10 06:36:02;;;;;;;22.63;8.55;;;;;;;14.02;100.00;101985.22;5037233;28;20037;-76
2023/08/10 06:38:29;;;;;;;23.10;8.75;;;;;;;14.09;100.00;101992.78;5037053;28;20071;-76
2023/08/10 06:40:55;;;;;;;22.45;9.27;;;;;;;14.16;100.00;101994.06;5034818;28;20104;-76
2023/08/10 06:43:21;;;;;;;21.40;8.15;;;;;;;14.22;100.00;101987.38;5033723;28;20030;-75
2023/08/10 06:45:46;;;;;;;21.10;7.70;;;;;;;14.30;100.00;101986.81;5040751;28;20032;-76
2023/08/10 06:48:12;;;;;;;21.80;8.75;;;;;;;14.37;100.00;101989.97;5030749;28;20044;-76
2023/08/10 06:50:37;;;;;;;24.13;8.35;;;;;;;14.43;100.00;101984.13;5036193;28;20103;-76
2023/08/10 06:53:04;;;;;;;22.52;8.23;;;;;;;14.50;100.00;101982.72;5033139;28;20026;-76
2023/08/10 06:55:30;;;;;;;18.27;7.22;;;;;;;14.57;100.00;101980.41;5047539;28;20485;-77
2023/08/10 06:57:56;;;;;;;17.80;6.65;;;;;;;14.63;100.00;101986.28;5038572;28;20027;-77
2023/08/10 07:00:22;;;;;;;18.48;6.93;;;;;;;14.70;100.00;101977.72;5033391;28;20032;-78
2023/08/10 07:02:53;;;;;;;20.52;7.32;;;;;;;14.77;100.00;101982.56;5040579;28;20032;-75
2023/08/10 07:05:20;;;;;;;15.23;4.97;;;;;;;14.76;100.00;101979.97;5071948;23;20596;-76
2023/08/10 07:07:49;;;;;;;12.30;4.38;;;;;;;14.78;100.00;101978.03;5053796;28;20051;-76
2023/08/10 07:10:14;;;;;;;15.38;4.43;;;;;;;14.86;100.00;101975.59;5045178;28;20112;-76
2023/08/10 07:12:40;;;;;;;14.77;4.60;;;;;;;14.89;100.00;101975.41;5035241;28;20061;-76
2023/08/10 07:15:08;;;;;;;10.43;3.03;;;;;;;14.91;100.00;101972.59;5032501;28;20051;-76
2023/08/10 07:17:34;;;;;;;11.30;4.03;;;;;;;14.95;100.00;101980.38;5032510;28;20097;-76
2023/08/10 07:19:59;;;;;;;9.00;3.35;;;;;;;14.96;100.00;101976.66;5030911;28;20487;-77
2023/08/10 07:22:25;;;;;;;11.52;4.10;;;;;;;15.02;100.00;101981.63;5030311;28;20049;-77
2023/08/10 07:24:50;;;;;;;12.68;3.13;;;;;;;15.03;100.00;101977.94;5029720;28;20037;-77
2023/08/10 07:27:17;;;;;;;11.25;4.07;;;;;;;15.12;100.00;101983.66;5028652;28;20029;-77
2023/08/10 07:29:42;;;;;;;8.38;3.13;;;;;;;15.14;99.37;101982.56;5034391;28;20103;-77
2023/08/10 07:32:08;;;;;;;13.27;3.80;;;;;;;15.20;100.00;101984.81;5033190;28;20151;-77
2023/08/10 07:34:33;;;;;;;13.48;4.05;;;;;;;15.27;99.64;101979.81;5032696;28;20063;-77
2023/08/10 07:36:58;;;;;;;11.90;3.50;;;;;;;15.33;97.66;101983.88;5027250;28;20108;-77
2023/08/10 07:39:24;;;;;;;7.22;2.80;;;;;;;15.36;96.87;101979.09;5031370;28;20079;-77
2023/08/10 07:41:49;;;;;;;7.85;2.50;;;;;;;15.41;96.28;101969.78;5028520;28;20028;-77
2023/08/10 07:44:14;;;;;;;8.55;3.05;;;;;;;15.45;94.45;101982.09;5031697;28;20033;-76
2023/08/10 07:46:40;;;;;;;8.07;2.70;;;;;;;15.50;88.45;101983.47;5030772;28;20448;-77
2023/08/10 07:49:08;;;;;;;9.25;2.92;;;;;;;15.54;93.77;101981.41;5032165;28;20033;-77
2023/08/10 07:51:33;;;;;;;16.13;2.70;;;;;;;15.59;93.28;101979.19;5034233;28;20349;-77
2023/08/10 07:53:58;;;;;;;8.02;2.53;;;;;;;15.65;86.54;101986.88;5029034;28;20095;-77
2023/08/10 07:56:24;;;;;;;9.82;2.45;;;;;;;15.71;81.02;101988.22;5032284;28;20026;-74
2023/08/10 07:58:49;;;;;;;11.68;2.55;;;;;;;15.78;79.83;101985.91;5026517;28;20033;-73
2023/08/10 08:01:14;;;;;;;9.13;2.42;;;;;;;15.83;77.24;101991.88;5028127;28;20098;-74
2023/08/10 08:03:40;;;;;;;9.02;2.58;;;;;;;15.89;78.91;101994.09;5043784;28;20523;-76
2023/08/10 08:06:06;;;;;;;8.90;2.70;;;;;;;15.97;77.49;101993.50;5027618;28;20022;-76
2023/08/10 08:08:31;;;;;;;8.70;2.35;;;;;;;16.03;79.03;101998.44;5027535;28;20105;-75
2023/08/10 08:10:58;;;;;;;11.80;2.60;;;;;;;16.12;76.35;101986.00;5031358;28;20030;-85
2023/08/10 08:13:23;;;;;;;6.57;2.47;;;;;;;16.19;75.36;101987.25;5032686;28;20061;-77
2023/08/10 08:15:49;;;;;;;9.18;2.58;;;;;;;16.24;75.08;101985.06;5031411;28;20593;-78
2023/08/10 08:18:47;;;;;;;11.35;2.90;;;;;;;16.33;80.04;101991.59;5032116;28;20491;-78
2023/08/10 08:21:18;;;;;;;10.10;2.85;;;;;;;16.38;79.60;101983.94;5031549;28;20036;-77
2023/08/10 08:23:45;;;;;;;8.93;2.90;;;;;;;16.39;79.73;101983.81;5029922;28;20033;-78
2023/08/10 08:26:12;;;;;;;6.32;2.30;;;;;;;16.48;77.29;101986.78;5030091;28;20029;-78
2023/08/10 08:28:37;;;;;;;6.07;2.10;;;;;;;16.49;82.34;101989.38;5030677;28;20029;-77
2023/08/10 08:31:04;;;;;;;8.75;2.45;;;;;;;16.54;80.67;101994.44;5028856;28;20204;-77
2023/08/10 08:33:29;;;;;;;6.10;2.08;;;;;;;16.56;76.81;101997.88;5030182;28;20030;-77
2023/08/10 08:35:54;;;;;;;7.22;2.80;;;;;;;16.64;76.96;101998.13;5031011;28;20044;-78
2023/08/10 08:38:20;;;;;;;9.50;2.60;;;;;;;16.69;74.18;101995.91;5030564;28;20138;-78
2023/08/10 08:40:48;;;;;;;10.85;2.90;;;;;;;16.74;74.53;101996.38;5031771;28;20038;-78
2023/08/10 08:43:13;;;;;;;8.35;2.55;;;;;;;16.86;74.15;102002.66;5028097;28;20438;-78
2023/08/10 08:45:40;;;;;;;8.60;3.13;;;;;;;16.94;72.46;101993.91;5032589;28;20021;-79
2023/08/10 08:48:10;;;;;;;6.60;2.47;;;;;;;17.04;73.22;101989.47;5029902;28;20184;-79
2023/08/10 08:50:36;;;;;;;7.32;2.50;;;;;;;17.17;78.70;101993.88;5033195;28;20021;-79
2023/08/10 08:53:07;;;;;;;8.15;2.97;;;;;;;17.29;77.08;101992.84;5031216;28;20025;-79
2023/08/10 08:55:33;;;;;;;11.77;2.90;;;;;;;17.33;71.68;101996.19;5028274;28;20033;-78
2023/08/10 08:57:59;;;;;;;6.63;2.17;;;;;;;17.39;72.01;101996.50;5030444;28;20022;-79
2023/08/10 09:00:24;;;;;;;5.80;2.10;;;;;;;17.45;74.03;101997.84;5031291;28;20033;-79
2023/08/10 09:02:51;;;;;;;7.00;2.22;;;;;;;17.50;74.01;101984.75;5032541;28;20048;-79
2023/08/10 09:05:18;;;;;;;9.23;2.25;;;;;;;17.54;78.29;101985.34;5031244;28;20045;-79
2023/08/10 09:07:44;;;;;;;7.03;2.63;;;;;;;17.58;76.73;101981.38;5023807;28;20066;-79
2023/08/10 09:10:10;;;;;;;8.55;2.60;;;;;;;17.64;74.04;101975.41;5028882;28;20021;-81
2023/08/10 09:12:41;;;;;;;6.03;2.60;;;;;;;17.71;72.48;101965.72;5031003;28;20056;-82
2023/08/10 09:15:12;;;;;;;6.75;2.55;;;;;;;17.76;73.70;101971.66;5031132;28;20037;-82
2023/08/10 09:17:52;;;;;;;5.03;2.20;;;;;;;17.85;73.63;101974.56;5034184;28;20088;-81
2023/08/10 09:20:27;;;;;;;7.05;2.33;;;;;;;17.90;74.46;101973.19;5033613;28;20026;-81
2023/08/10 09:22:55;;;;;;;7.78;2.58;;;;;;;17.94;71.64;101977.38;5032049;28;20029;-80
2023/08/10 09:25:21;;;;;;;9.63;2.15;;;;;;;18.03;74.00;101969.44;5033572;28;20029;-81
2023/08/10 09:27:48;;;;;;;12.95;2.83;;;;;;;18.09;72.60;101974.31;5034077;28;20025;-81
2023/08/10 09:30:15;;;;;;;6.97;2.60;;;;;;;18.13;70.41;101973.91;5053456;28;20031;-80
2023/08/10 09:32:41;;;;;;;6.22;2.42;;;;;;;18.20;73.07;101971.53;5034421;28;20025;-81
2023/08/10 09:35:12;;;;;;;10.63;3.00;;;;;;;18.23;71.33;101968.53;5033517;28;20036;-81
2023/08/10 09:37:37;;;;;;;6.85;2.40;;;;;;;18.30;72.83;101969.72;5030925;28;20025;-81
2023/08/10 09:40:05;;;;;;;9.23;2.83;;;;;;;18.40;72.76;101967.03;5032976;28;20036;-81
2023/08/10 09:42:32;;;;;;;7.00;2.85;;;;;;;18.44;71.12;101973.06;5031381;28;20155;-81
2023/08/10 09:44:59;;;;;;;7.80;2.67;;;;;;;18.47;73.99;101968.19;5032841;28;20028;-80
2023/08/10 09:47:24;;;;;;;7.32;2.88;;;;;;;18.54;70.63;101978.53;5028070;28;20033;-80
2023/08/10 09:50:01;;;;;;;6.50;2.85;;;;;;;18.57;70.11;101981.00;5029438;28;20032;-81
2023/08/10 09:52:27;;;;;;;7.32;2.67;;;;;;;18.61;68.53;101982.44;5030911;28;20029;-82
2023/08/10 09:54:55;;;;;;;7.72;2.83;;;;;;;18.66;70.11;101972.00;5031896;28;20022;-83
2023/08/10 09:57:22;;;;;;;9.07;2.85;;;;;;;18.69;69.79;101966.28;5030614;28;20357;-83
2023/08/10 09:59:47;;;;;;;5.45;2.45;;;;;;;18.71;69.46;101972.44;5029327;28;20435;-81
2023/08/10 10:02:14;;;;;;;6.15;2.50;;;;;;;18.76;68.05;101977.50;5030647;28;20084;-81
2023/08/10 10:04:40;;;;;;;5.85;2.50;;;;;;;18.80;68.66;101979.78;5031306;28;20064;-82
2023/08/10 10:07:09;;;;;;;3.92;2.28;;;;;;;18.83;68.49;101979.50;5031131;28;20021;-80
2023/08/10 10:09:39;;;;;;;6.78;3.10;;;;;;;18.91;68.83;101973.38;5029727;28;20033;-82
2023/08/10 10:12:10;;;;;;;10.32;2.97;;;;;;;18.95;70.09;101972.13;5029473;28;20035;-83
2023/08/10 10:14:47;;;;;;;8.20;2.83;;;;;;;18.98;70.56;101974.56;5029122;28;20025;-83
2023/08/10 10:17:16;;;;;;;6.05;2.75;;;;;;;19.01;68.07;101977.00;5031412;28;20033;-83
2023/08/10 10:19:42;;;;;;;9.15;3.28;;;;;;;19.02;68.16;101980.59;5031282;28;20029;-83
2023/08/10 10:22:08;;;;;;;10.68;3.28;;;;;;;19.08;70.67;101980.03;5030063;28;20025;-84
2023/08/10 10:24:38;;;;;;;11.68;3.17;;;;;;;19.12;68.77;101978.75;5029913;28;20430;-81
2023/08/10 10:27:08;;;;;;;8.07;2.92;;;;;;;19.18;70.46;101989.09;5030543;28;20112;-80
2023/08/10 10:29:40;;;;;;;5.63;2.70;;;;;;;19.25;70.67;101991.25;5030750;28;20056;-80
2023/08/10 10:32:15;;;;;;;10.23;2.85;;;;;;;19.28;68.42;101985.50;5020806;28;20021;-80
2023/08/10 10:34:41;;;;;;;8.55;3.03;;;;;;;19.33;68.37;101983.22;5027193;28;20405;-79
2023/08/10 10:37:21;;;;;;;9.38;2.75;;;;;;;19.39;67.09;101980.75;5029144;28;20491;-79
2023/08/10 10:39:53;;;;;;;10.60;3.28;;;;;;;19.39;64.49;101972.59;5030943;28;20104;-79
2023/08/10 10:42:20;;;;;;;8.30;3.08;;;;;;;19.45;66.91;101984.78;5011691;28;20041;-78
2023/08/10 10:44:58;;;;;;;10.90;3.33;;;;;;;19.52;68.68;101976.91;5030354;28;20033;-79
2023/08/10 10:47:34;;;;;;;8.60;3.40;;;;;;;19.59;69.77;101974.44;5028601;28;20129;-80
2023/08/10 10:49:59;;;;;;;9.27;3.15;;;;;;;19.64;69.02;101972.16;5028889;28;20481;-80
2023/08/10 10:52:35;;;;;;;8.88;3.30;;;;;;;19.70;71.42;101971.59;5045796;28;20025;-80
2023/08/10 10:55:03;;;;;;;11.05;2.85;;;;;;;19.70;67.57;101960.66;5029880;28;20519;-80
2023/08/10 10:57:31;;;;;;;11.05;3.00;;;;;;;19.70;65.42;101960.66;5022410;28;20024;-80
2023/08/10 10:59:57;;;;;;;7.40;2.55;;;;;;;19.74;71.56;101951.19;5028396;28;20029;-80
2023/08/10 11:02:23;;;;;;;8.68;3.75;;;;;;;19.72;68.07;101964.97;5028743;28;20033;-80
2023/08/10 11:04:51;;;;;;;8.15;2.90;;;;;;;19.73;66.84;101971.28;5027626;28;20496;-80
2023/08/10 11:07:19;;;;;;;9.10;3.45;;;;;;;19.74;65.25;101962.09;5028418;28;20079;-81
2023/08/10 11:09:45;;;;;;;7.50;3.00;;;;;;;19.76;65.93;101962.81;5028416;28;20493;-80
2023/08/10 11:12:10;;;;;;;10.98;3.38;;;;;;;19.77;66.66;101964.53;5028626;28;20059;-80
2023/08/10 11:14:38;;;;;;;7.55;2.70;;;;;;;19.80;69.52;101963.44;5030201;28;20034;-78